Time;durP1;ratioP1;P1;durP2;ratioP2;P2;SDS_P1;SDS_P2;PMS_P1;PMS_P2;Temp;Humidity;BMP_temperature;BMP_pressure;BME280_temperature;BME280_humidity;BME280_pressure;Samples;Min_cycle;Max_cycle;Signal;HPM_P1;HPM_P2
2024/01/06 00:01:58;;;;;;;;;20.20;19.80;;;;;10.38;43.07;98508.13;5070323;28;8915;-77
2024/01/06 00:04:27;;;;;;;;;20.60;20.60;;;;;10.45;43.22;98508.78;5071503;28;8862;-77
2024/01/06 00:06:58;;;;;;;;;23.60;21.60;;;;;10.35;43.47;98510.06;5019532;28;8949;-77
2024/01/06 00:09:27;;;;;;;;;21.00;20.60;;;;;10.30;43.42;98498.84;5071256;28;8847;-76
2024/01/06 00:11:56;;;;;;;;;23.20;21.80;;;;;10.31;43.53;98503.16;5053351;28;8850;-75
2024/01/06 00:14:25;;;;;;;;;20.80;19.80;;;;;10.31;43.48;98505.78;5071128;28;8831;-77
2024/01/06 00:16:54;;;;;;;;;17.20;17.20;;;;;10.27;43.74;98512.94;5071131;28;8869;-77
2024/01/06 00:19:22;;;;;;;;;17.00;15.00;;;;;10.22;43.72;98507.00;5069692;28;8854;-77
2024/01/06 00:21:52;;;;;;;;;16.40;15.00;;;;;10.21;43.29;98510.53;5035952;28;8889;-77
2024/01/06 00:24:22;;;;;;;;;19.20;17.60;;;;;10.16;43.35;98502.81;5071519;28;8846;-76
2024/01/06 00:26:51;;;;;;;;;19.00;15.80;;;;;10.14;43.12;98511.66;5073390;28;8838;-77
2024/01/06 00:29:20;;;;;;;;;18.40;17.20;;;;;10.13;42.74;98508.19;5040783;28;8866;-76
2024/01/06 00:31:49;;;;;;;;;13.00;13.00;;;;;10.07;42.57;98512.81;5072555;28;8868;-76
2024/01/06 00:34:18;;;;;;;;;13.40;11.60;;;;;10.10;42.23;98518.78;5071398;28;8859;-75
2024/01/06 00:36:47;;;;;;;;;14.40;13.60;;;;;10.19;42.20;98509.72;5071335;28;8834;-77
2024/01/06 00:39:16;;;;;;;;;10.80;10.80;;;;;10.22;41.59;98514.88;5071195;28;8856;-78
2024/01/06 00:41:47;;;;;;;;;13.00;13.00;;;;;10.26;41.59;98507.75;5035782;28;8838;-76
2024/01/06 00:44:16;;;;;;;;;15.60;13.00;;;;;10.37;41.07;98509.06;5071009;28;8880;-77
2024/01/06 00:46:46;;;;;;;;;12.80;12.60;;;;;10.34;41.10;98509.16;5051901;28;8897;-79
2024/01/06 00:49:14;;;;;;;;;13.20;10.60;;;;;10.36;41.05;98509.13;5070618;28;8862;-78
2024/01/06 00:51:44;;;;;;;;;12.80;12.60;;;;;10.30;40.81;98502.31;5052078;28;8858;-76
2024/01/06 00:54:13;;;;;;;;;15.00;13.80;;;;;10.28;40.88;98505.94;5070364;28;9616;-76
2024/01/06 00:56:42;;;;;;;;;11.00;11.00;;;;;10.30;40.83;98485.72;5070483;28;8835;-76
2024/01/06 00:59:13;;;;;;;;;16.60;12.00;;;;;10.39;40.61;98493.25;5070453;28;8889;-78
2024/01/06 01:01:42;;;;;;;;;13.40;13.40;;;;;10.31;40.80;98492.66;5069129;28;8989;-77
2024/01/06 01:04:11;;;;;;;;;5.60;5.60;;;;;10.34;40.54;98490.78;5069277;28;8863;-75
2024/01/06 01:06:40;;;;;;;;;10.20;9.80;;;;;10.32;40.55;98497.88;5070479;28;8846;-76
2024/01/06 01:09:10;;;;;;;;;12.40;12.40;;;;;10.33;40.83;98488.19;5070242;28;9771;-76
2024/01/06 01:11:39;;;;;;;;;10.20;8.60;;;;;10.26;40.58;98487.59;5069061;28;8842;-76
2024/01/06 01:14:08;;;;;;;;;11.80;11.60;;;;;10.26;40.67;98492.00;5070245;28;9022;-77
2024/01/06 01:16:39;;;;;;;;;12.80;12.00;;;;;10.31;40.65;98483.03;5055662;28;8842;-75
2024/01/06 01:19:07;;;;;;;;;11.40;10.80;;;;;10.22;40.61;98486.00;5074778;28;8943;-77
2024/01/06 01:21:37;;;;;;;;;11.60;10.60;;;;;10.24;40.39;98471.03;5070782;28;8882;-75
2024/01/06 01:24:06;;;;;;;;;11.60;11.20;;;;;10.29;40.29;98482.22;5070269;28;8870;-76
2024/01/06 01:26:35;;;;;;;;;6.80;6.80;;;;;10.33;40.28;98482.94;5047359;28;8839;-77
2024/01/06 01:29:04;;;;;;;;;7.40;7.40;;;;;10.32;40.22;98479.47;5047459;28;8909;-78
2024/01/06 01:31:34;;;;;;;;;10.40;10.20;;;;;10.30;40.12;98473.44;4987836;28;8876;-76
2024/01/06 01:34:04;;;;;;;;;8.60;6.80;;;;;10.38;40.02;98479.25;4971834;28;8845;-77
2024/01/06 01:36:33;;;;;;;;;11.00;10.20;;;;;10.37;39.93;98487.19;4987591;28;8865;-76
2024/01/06 01:39:02;;;;;;;;;9.40;7.60;;;;;10.47;39.56;98472.78;4988059;28;8857;-78
2024/01/06 01:41:31;;;;;;;;;10.60;10.20;;;;;10.53;39.35;98479.59;4955324;28;8825;-77
2024/01/06 01:44:00;;;;;;;;;11.40;11.40;;;;;10.59;39.21;98472.34;4988111;28;8980;-79
2024/01/06 01:46:30;;;;;;;;;8.00;7.20;;;;;10.60;38.63;98453.03;4971563;28;8861;-77
2024/01/06 01:49:01;;;;;;;;;9.20;8.20;;;;;10.59;38.50;98439.94;5003791;28;8895;-77
2024/01/06 01:51:35;;;;;;;;;9.20;8.60;;;;;10.67;38.31;98431.75;4971371;28;8896;-76
2024/01/06 01:54:06;;;;;;;;;7.40;6.80;;;;;10.68;38.46;98439.56;4971563;28;9603;-76
2024/01/06 01:56:37;;;;;;;;;7.20;6.40;;;;;10.63;38.09;98438.88;4987734;28;8868;-77
2024/01/06 01:59:11;;;;;;;;;6.80;5.40;;;;;10.62;38.14;98446.88;5026843;28;8868;-77
2024/01/06 02:01:41;;;;;;;;;9.20;8.00;;;;;10.67;37.82;98435.25;5027950;28;8848;-75
2024/01/06 02:04:10;;;;;;;;;7.00;7.00;;;;;10.67;37.81;98435.25;5030726;28;8891;-76
2024/01/06 02:06:41;;;;;;;;;7.00;6.80;;;;;10.69;37.92;98435.16;5053682;28;8845;-76
2024/01/06 02:09:11;;;;;;;;;6.20;6.20;;;;;10.74;38.11;98439.34;5054169;28;8853;-76
2024/01/06 02:11:40;;;;;;;;;5.20;5.20;;;;;10.72;37.94;98419.28;5047775;28;8879;-76
2024/01/06 02:14:09;;;;;;;;;7.80;7.80;;;;;10.77;37.72;98420.00;5049291;28;8937;-76
2024/01/06 02:16:38;;;;;;;;;9.80;8.00;;;;;10.70;38.05;98424.59;5062336;28;8896;-77
2024/01/06 02:19:11;;;;;;;;;6.20;6.20;;;;;10.72;38.02;98428.03;5029977;28;8886;-77
2024/01/06 02:21:44;;;;;;;;;6.40;6.00;;;;;10.79;37.61;98418.16;5046503;28;9036;-76
2024/01/06 02:24:15;;;;;;;;;7.80;7.80;;;;;10.82;37.87;98431.16;5013039;28;8956;-76
2024/01/06 02:26:44;;;;;;;;;9.00;8.00;;;;;10.68;37.98;98422.97;5046073;28;8854;-75
2024/01/06 02:29:13;;;;;;;;;7.00;7.00;;;;;10.72;37.78;98422.75;5046405;28;8866;-76
2024/01/06 02:31:42;;;;;;;;;3.80;3.80;;;;;10.75;37.62;98429.72;5046287;28;8866;-75
2024/01/06 02:34:11;;;;;;;;;7.00;7.00;;;;;10.76;37.77;98415.66;5046114;28;8973;-76
2024/01/06 02:36:40;;;;;;;;;6.00;6.00;;;;;10.77;37.32;98409.50;5046209;28;8983;-76
2024/01/06 02:39:09;;;;;;;;;9.60;6.40;;;;;10.84;37.54;98394.31;5046053;28;8854;-76
2024/01/06 02:41:40;;;;;;;;;5.20;5.20;;;;;10.82;37.41;98391.72;4997435;28;8854;-77
2024/01/06 02:44:09;;;;;;;;;7.20;6.20;;;;;10.71;37.85;98388.69;5046074;28;8857;-76
2024/01/06 02:46:41;;;;;;;;;3.80;3.80;;;;;10.67;37.54;98387.06;5046372;28;8858;-76
2024/01/06 02:49:10;;;;;;;;;8.60;8.60;;;;;10.67;37.55;98376.56;5046157;28;8890;-76
2024/01/06 02:51:40;;;;;;;;;7.00;6.00;;;;;10.61;37.69;98390.78;5070409;28;8851;-76
2024/01/06 02:54:08;;;;;;;;;6.40;6.20;;;;;10.60;37.68;98375.97;5071774;28;8868;-76
2024/01/06 02:56:39;;;;;;;;;6.00;5.80;;;;;10.56;37.63;98391.00;5074598;28;8919;-76
2024/01/06 02:59:08;;;;;;;;;8.00;8.00;;;;;10.58;37.97;98377.78;5078028;28;8854;-76
2024/01/06 03:01:37;;;;;;;;;6.40;6.40;;;;;10.51;38.02;98382.44;5075809;28;8846;-77
2024/01/06 03:04:06;;;;;;;;;6.60;5.20;;;;;10.54;37.97;98377.06;5037985;28;8970;-76
2024/01/06 03:06:36;;;;;;;;;7.00;5.60;;;;;10.50;37.87;98371.97;5030155;28;8907;-77
2024/01/06 03:09:06;;;;;;;;;8.00;7.00;;;;;10.52;37.89;98368.38;5029802;28;10083;-75
2024/01/06 03:11:35;;;;;;;;;7.00;7.00;;;;;10.49;37.98;98360.63;5030180;28;8880;-76
2024/01/06 03:14:05;;;;;;;;;8.80;7.20;;;;;10.49;38.15;98351.88;5029856;28;8864;-76
2024/01/06 03:16:34;;;;;;;;;7.60;6.00;;;;;10.49;38.21;98349.25;5029879;28;8872;-77
2024/01/06 03:19:03;;;;;;;;;7.80;7.80;;;;;10.50;38.26;98345.69;5029691;28;8860;-76
2024/01/06 03:21:32;;;;;;;;;7.60;7.60;;;;;10.50;38.14;98349.19;5029671;28;8943;-75
2024/01/06 03:24:01;;;;;;;;;6.40;6.40;;;;;10.45;38.06;98345.03;5029623;28;8887;-77
2024/01/06 03:26:30;;;;;;;;;8.20;7.00;;;;;10.39;38.15;98347.00;5013144;28;8874;-76
2024/01/06 03:28:59;;;;;;;;;6.40;6.00;;;;;10.31;38.40;98345.56;5029631;28;9761;-76
2024/01/06 03:31:30;;;;;;;;;6.80;6.60;;;;;10.28;38.39;98345.72;5029273;28;8860;-76
2024/01/06 03:33:59;;;;;;;;;8.80;7.60;;;;;10.27;38.50;98347.47;5029505;28;8886;-76
2024/01/06 03:36:29;;;;;;;;;7.80;7.80;;;;;10.19;38.73;98345.13;5029135;28;8852;-76
2024/01/06 03:38:58;;;;;;;;;8.20;8.20;;;;;10.25;38.44;98336.16;5029402;28;8972;-78
2024/01/06 03:41:27;;;;;;;;;7.40;7.40;;;;;10.26;38.76;98343.13;5029477;28;9622;-75
2024/01/06 03:43:56;;;;;;;;;6.40;6.40;;;;;10.25;38.72;98336.16;5037423;28;8887;-75
2024/01/06 03:46:26;;;;;;;;;10.00;7.80;;;;;10.33;38.72;98338.47;5055962;28;8950;-77
2024/01/06 03:48:56;;;;;;;;;7.00;6.00;;;;;10.29;38.38;98329.91;5062613;28;8867;-76
2024/01/06 03:51:25;;;;;;;;;9.40;9.40;;;;;10.15;39.04;98335.66;5072695;28;8873;-74
2024/01/06 03:53:54;;;;;;;;;10.60;7.60;;;;;10.17;38.82;98331.22;5071099;28;8859;-76
2024/01/06 03:56:24;;;;;;;;;8.20;8.20;;;;;10.20;38.91;98330.25;5071848;28;8846;-77
2024/01/06 03:58:52;;;;;;;;;6.80;6.80;;;;;10.14;39.00;98323.47;5071715;28;8834;-77
2024/01/06 04:01:22;;;;;;;;;6.00;6.00;;;;;10.21;38.77;98324.91;5070493;28;8846;-76
2024/01/06 04:03:50;;;;;;;;;6.40;5.40;;;;;10.19;38.83;98324.13;5069906;28;8932;-76
2024/01/06 04:06:21;;;;;;;;;10.00;7.20;;;;;10.18;38.83;98318.97;5071262;28;8861;-76
2024/01/06 04:08:50;;;;;;;;;10.40;8.00;;;;;10.17;38.76;98323.31;5071649;28;8842;-75
2024/01/06 04:11:19;;;;;;;;;6.20;6.20;;;;;10.19;38.67;98318.03;5069915;28;8870;-77
2024/01/06 04:13:48;;;;;;;;;6.80;6.00;;;;;10.15;38.91;98325.16;5071505;28;8838;-75
2024/01/06 04:16:17;;;;;;;;;8.20;8.20;;;;;10.14;38.84;98317.34;5051163;28;8879;-75
2024/01/06 04:18:46;;;;;;;;;6.40;6.40;;;;;10.15;38.77;98314.66;5050927;28;9766;-76
2024/01/06 04:21:15;;;;;;;;;9.00;9.00;;;;;10.08;39.29;98315.81;5050882;28;8865;-76
2024/01/06 04:23:44;;;;;;;;;7.20;7.20;;;;;10.07;39.24;98315.88;5048612;28;8859;-78
2024/01/06 04:26:14;;;;;;;;;10.40;8.20;;;;;10.07;39.12;98313.25;5048156;28;8994;-77
2024/01/06 04:28:43;;;;;;;;;8.80;7.40;;;;;10.10;39.15;98311.34;5048597;28;8836;-76
2024/01/06 04:31:12;;;;;;;;;8.40;7.00;;;;;10.09;39.14;98314.06;5048427;28;8844;-75
2024/01/06 04:33:41;;;;;;;;;12.40;10.60;;;;;10.13;39.22;98305.13;5048472;28;8885;-76
2024/01/06 04:36:10;;;;;;;;;7.20;7.20;;;;;10.21;39.18;98308.31;5049376;28;8968;-76
2024/01/06 04:38:39;;;;;;;;;7.80;6.20;;;;;10.24;39.16;98315.22;5052306;28;9017;-75
2024/01/06 04:41:10;;;;;;;;;6.40;6.40;;;;;10.30;39.17;98317.59;5050737;28;8871;-76
2024/01/06 04:43:39;;;;;;;;;8.20;5.60;;;;;10.30;39.03;98322.88;5048056;28;8884;-76
2024/01/06 04:46:08;;;;;;;;;6.40;6.00;;;;;10.34;39.04;98320.03;5048401;28;8862;-78
2024/01/06 04:48:37;;;;;;;;;8.40;6.80;;;;;10.30;39.23;98313.19;5047934;28;8839;-76
2024/01/06 04:51:09;;;;;;;;;5.00;3.80;;;;;10.35;38.88;98311.25;5047945;28;8868;-77
2024/01/06 04:53:39;;;;;;;;;5.60;5.60;;;;;10.44;38.81;98312.63;5048249;28;8840;-77
2024/01/06 04:56:08;;;;;;;;;5.60;5.40;;;;;10.59;38.85;98319.94;5047961;28;8999;-78
2024/01/06 04:58:38;;;;;;;;;8.40;8.40;;;;;10.65;38.75;98323.19;5048318;28;9026;-76
2024/01/06 05:01:08;;;;;;;;;13.00;13.00;;;;;10.76;38.76;98318.41;5055654;28;8946;-75
2024/01/06 05:03:37;;;;;;;;;7.40;7.40;;;;;10.77;38.49;98320.13;5071028;28;9135;-75
2024/01/06 05:06:06;;;;;;;;;7.60;7.60;;;;;10.85;38.36;98314.53;5069165;28;8954;-77
2024/01/06 05:08:38;;;;;;;;;7.00;7.00;;;;;10.86;38.20;98313.59;5070063;28;8884;-76
2024/01/06 05:11:07;;;;;;;;;8.40;7.60;;;;;10.86;38.61;98318.88;5070021;28;8847;-76
2024/01/06 05:13:37;;;;;;;;;7.00;7.00;;;;;10.88;38.24;98322.28;5070337;28;8850;-77
2024/01/06 05:16:08;;;;;;;;;7.20;7.20;;;;;10.93;38.11;98315.91;5069344;28;8839;-78
2024/01/06 05:18:37;;;;;;;;;9.00;7.40;;;;;10.97;38.12;98320.16;5070320;28;9693;-75
2024/01/06 05:21:07;;;;;;;;;10.20;10.00;;;;;11.00;37.79;98313.03;5070364;28;8881;-76
2024/01/06 05:23:37;;;;;;;;;8.60;8.60;;;;;10.90;37.96;98323.94;5070264;28;9650;-76
2024/01/06 05:26:06;;;;;;;;;8.00;8.00;;;;;10.80;37.94;98312.09;5073985;28;8869;-75
2024/01/06 05:28:34;;;;;;;;;9.00;7.40;;;;;10.94;37.82;98316.78;5074616;28;8858;-76
2024/01/06 05:31:05;;;;;;;;;7.20;7.00;;;;;10.91;37.91;98311.66;5069773;28;8902;-75
2024/01/06 05:33:34;;;;;;;;;13.40;12.00;;;;;10.78;37.78;98301.66;5069504;28;8871;-77
2024/01/06 05:36:04;;;;;;;;;12.00;12.00;;;;;10.83;37.76;98296.19;5069815;28;8842;-76
2024/01/06 05:38:33;;;;;;;;;10.60;7.80;;;;;10.71;38.11;98292.28;5070211;28;8835;-76
2024/01/06 05:41:02;;;;;;;;;7.60;7.60;;;;;10.73;37.98;98295.72;5070522;28;8863;-75
2024/01/06 05:43:31;;;;;;;;;9.20;9.20;;;;;10.61;38.01;98301.44;5069812;28;8894;-77
2024/01/06 05:46:00;;;;;;;;;14.60;14.00;;;;;10.65;38.34;98302.19;5018391;28;8885;-75
2024/01/06 05:48:30;;;;;;;;;9.00;9.00;;;;;10.52;38.49;98294.81;5070014;28;8869;-76
2024/01/06 05:50:59;;;;;;;;;11.20;10.00;;;;;10.40;38.59;98298.78;5069915;28;8826;-76
2024/01/06 05:53:28;;;;;;;;;6.80;6.80;;;;;10.44;38.32;98293.41;5069495;28;8854;-76
2024/01/06 05:55:58;;;;;;;;;9.60;7.40;;;;;10.33;38.75;98293.81;5069353;28;8951;-75
2024/01/06 05:58:26;;;;;;;;;7.40;7.40;;;;;10.24;39.16;98296.84;5034061;28;9560;-76
2024/01/06 06:00:55;;;;;;;;;10.60;7.00;;;;;10.14;39.11;98297.22;5046258;28;9611;-76
2024/01/06 06:03:24;;;;;;;;;8.20;7.60;;;;;10.21;39.09;98297.81;5046867;28;8861;-75
2024/01/06 06:05:55;;;;;;;;;16.00;13.40;;;;;10.11;39.39;98301.72;5046616;28;8830;-75
2024/01/06 06:08:24;;;;;;;;;14.40;13.20;;;;;9.91;39.73;98289.34;5046779;28;8858;-78
2024/01/06 06:11:01;;;;;;;;;9.60;8.40;;;;;9.99;39.61;98301.28;5046399;28;9580;-77
2024/01/06 06:13:30;;;;;;;;;8.20;8.20;;;;;9.89;39.87;98299.06;5001219;28;8865;-76
2024/01/06 06:16:00;;;;;;;;;11.00;9.60;;;;;9.93;39.61;98298.91;5032263;28;8846;-76
2024/01/06 06:18:28;;;;;;;;;10.20;10.20;;;;;9.93;39.83;98298.03;5017422;28;8870;-76
2024/01/06 06:21:00;;;;;;;;;11.00;7.00;;;;;9.89;39.88;98301.69;4981817;28;8959;-76
2024/01/06 06:23:29;;;;;;;;;12.20;11.60;;;;;9.88;39.78;98297.38;5046610;28;8861;-76
2024/01/06 06:25:59;;;;;;;;;25.40;20.60;;;;;9.92;39.66;98297.19;5046242;28;8838;-76
2024/01/06 06:28:27;;;;;;;;;12.60;12.60;;;;;10.01;39.42;98293.34;5045673;28;8933;-76
2024/01/06 06:30:56;;;;;;;;;11.60;10.80;;;;;10.05;39.32;98297.56;5046413;28;8896;-76
2024/01/06 06:33:25;;;;;;;;;11.20;10.60;;;;;9.92;39.72;98281.44;5068898;28;8866;-76
2024/01/06 06:35:55;;;;;;;;;13.20;10.00;;;;;9.87;39.70;98269.38;5068649;28;8850;-76
2024/01/06 06:38:26;;;;;;;;;13.60;11.40;;;;;9.86;39.91;98289.53;5033062;28;8858;-76
2024/01/06 06:40:56;;;;;;;;;9.60;8.20;;;;;9.86;39.92;98288.66;5084370;28;8846;-77
2024/01/06 06:43:25;;;;;;;;;10.00;9.00;;;;;9.87;40.00;98288.63;5068775;28;8869;-76
2024/01/06 06:45:55;;;;;;;;;11.00;10.40;;;;;9.94;39.78;98286.63;5067414;28;8862;-76
2024/01/06 06:48:25;;;;;;;;;9.60;9.60;;;;;9.94;39.83;98300.59;5068453;28;8935;-78
2024/01/06 06:50:54;;;;;;;;;11.80;10.80;;;;;9.92;40.04;98297.19;5068616;28;8858;-76
2024/01/06 06:53:24;;;;;;;;;8.20;8.20;;;;;10.05;39.71;98297.56;5049629;28;8885;-75
2024/01/06 06:55:53;;;;;;;;;6.20;6.20;;;;;10.13;39.50;98303.38;5068864;28;8834;-75
2024/01/06 06:58:22;;;;;;;;;8.60;8.60;;;;;10.17;39.32;98306.72;5068532;28;9592;-75
2024/01/06 07:00:54;;;;;;;;;8.80;8.40;;;;;10.26;39.11;98316.03;5068641;28;8846;-76
2024/01/06 07:03:23;;;;;;;;;11.00;9.80;;;;;10.29;39.01;98301.00;5067340;28;9708;-76
2024/01/06 07:05:52;;;;;;;;;11.80;11.00;;;;;10.25;39.23;98299.38;5070059;28;8851;-77
2024/01/06 07:08:21;;;;;;;;;11.80;10.60;;;;;10.33;38.87;98309.59;5069243;28;8854;-75
2024/01/06 07:10:51;;;;;;;;;7.00;7.00;;;;;10.31;39.42;98298.28;5068692;28;8875;-75
2024/01/06 07:13:20;;;;;;;;;11.40;9.80;;;;;10.29;39.28;98306.25;5066959;28;8912;-76
2024/01/06 07:15:50;;;;;;;;;12.60;10.00;;;;;10.27;38.94;98315.09;5067857;28;8850;-76
2024/01/06 07:18:23;;;;;;;;;9.20;8.40;;;;;10.24;39.39;98312.59;5068326;28;9094;-75
2024/01/06 07:20:52;;;;;;;;;10.00;10.00;;;;;10.25;39.23;98314.31;5068176;28;8842;-76
2024/01/06 07:23:21;;;;;;;;;9.80;9.40;;;;;10.30;39.26;98312.34;5068065;28;8877;-75
2024/01/06 07:25:51;;;;;;;;;11.20;9.60;;;;;10.41;38.93;98312.78;5068026;28;8850;-77
2024/01/06 07:28:21;;;;;;;;;11.20;10.40;;;;;10.45;38.92;98318.78;5067965;28;8919;-76
2024/01/06 07:30:50;;;;;;;;;11.20;11.20;;;;;10.51;38.71;98308.84;5068262;28;8846;-77
2024/01/06 07:33:20;;;;;;;;;12.00;11.20;;;;;10.50;38.77;98309.78;5068027;28;8862;-76
2024/01/06 07:35:49;;;;;;;;;6.80;6.80;;;;;10.55;38.99;98312.22;5068184;28;8878;-76
2024/01/06 07:38:19;;;;;;;;;12.80;11.60;;;;;10.54;39.07;98311.38;5033420;28;8935;-77
2024/01/06 07:40:48;;;;;;;;;9.80;9.20;;;;;10.68;38.81;98317.84;5003693;28;8874;-77
2024/01/06 07:43:18;;;;;;;;;11.00;10.80;;;;;10.75;38.84;98306.19;5072006;28;8827;-76
2024/01/06 07:45:50;;;;;;;;;11.20;10.60;;;;;10.83;38.71;98316.38;5071781;28;8884;-77
2024/01/06 07:48:20;;;;;;;;;12.40;11.80;;;;;10.75;38.43;98317.53;5071745;28;8869;-76
2024/01/06 07:50:49;;;;;;;;;14.00;12.00;;;;;10.87;38.68;98313.53;5071863;28;8854;-76
2024/01/06 07:53:18;;;;;;;;;14.40;12.40;;;;;10.89;38.45;98313.50;5036656;28;8846;-75
2024/01/06 07:55:47;;;;;;;;;16.00;13.60;;;;;10.93;38.57;98308.03;5076355;28;8877;-77
2024/01/06 07:58:16;;;;;;;;;13.00;12.40;;;;;11.00;38.23;98307.78;5074995;28;8834;-76
2024/01/06 08:00:47;;;;;;;;;12.20;12.00;;;;;10.95;38.37;98315.84;5072162;28;8884;-77
2024/01/06 08:03:16;;;;;;;;;12.00;12.00;;;;;10.96;38.58;98310.53;5070811;28;8846;-78
2024/01/06 08:05:46;;;;;;;;;16.20;12.60;;;;;11.04;38.39;98304.94;5069952;28;8846;-78
2024/01/06 08:08:16;;;;;;;;;15.20;13.40;;;;;11.04;38.58;98318.09;5071762;28;8862;-76
2024/01/06 08:10:45;;;;;;;;;14.20;12.40;;;;;11.10;38.43;98311.72;5069893;28;8969;-75
2024/01/06 08:13:15;;;;;;;;;11.80;11.00;;;;;11.09;38.75;98310.88;5071122;28;8918;-76
2024/01/06 08:15:43;;;;;;;;;15.00;14.80;;;;;11.20;38.00;98313.06;5070995;28;8981;-75
2024/01/06 08:18:14;;;;;;;;;15.20;14.80;;;;;11.19;38.26;98306.06;5071245;28;8862;-75
2024/01/06 08:20:44;;;;;;;;;15.80;14.80;;;;;11.16;38.31;98307.06;5069579;28;8850;-76
2024/01/06 08:23:13;;;;;;;;;14.20;12.20;;;;;11.27;38.37;98308.34;5069704;28;8881;-76
2024/01/06 08:25:42;;;;;;;;;16.40;15.00;;;;;11.30;38.39;98301.19;5070721;28;8854;-75
2024/01/06 08:28:11;;;;;;;;;16.60;16.60;;;;;11.37;38.56;98313.16;5066010;28;9563;-77
2024/01/06 08:30:40;;;;;;;;;16.20;15.80;;;;;11.48;38.41;98314.44;5048475;28;8845;-77
2024/01/06 08:33:09;;;;;;;;;13.80;12.40;;;;;11.47;38.31;98305.72;5050462;28;8876;-75
2024/01/06 08:35:40;;;;;;;;;12.80;11.20;;;;;11.48;38.35;98309.19;5066250;28;8954;-77
2024/01/06 08:38:09;;;;;;;;;14.20;14.20;;;;;11.60;38.20;98310.41;5051176;28;9595;-75
2024/01/06 08:40:38;;;;;;;;;17.80;16.80;;;;;11.48;38.70;98314.44;5051098;28;8922;-77
2024/01/06 08:43:07;;;;;;;;;16.60;15.60;;;;;11.52;38.17;98310.75;5055717;28;8881;-76
2024/01/06 08:45:36;;;;;;;;;12.60;12.00;;;;;11.57;38.51;98308.78;5056418;28;8870;-76
2024/01/06 08:48:06;;;;;;;;;14.40;13.00;;;;;11.62;38.57;98309.44;5073912;28;8936;-77
2024/01/06 08:50:34;;;;;;;;;14.60;14.60;;;;;11.67;38.45;98315.34;5070706;28;8943;-76
2024/01/06 08:53:05;;;;;;;;;14.40;13.00;;;;;11.51;38.64;98309.91;5070351;28;8847;-76
2024/01/06 08:55:36;;;;;;;;;14.80;13.80;;;;;11.64;38.11;98318.13;5070486;28;8958;-76
2024/01/06 08:58:06;;;;;;;;;14.80;14.00;;;;;11.62;38.08;98313.84;5070276;28;8827;-77
2024/01/06 09:00:34;;;;;;;;;13.40;10.40;;;;;11.61;38.25;98312.13;5069071;28;8878;-76
2024/01/06 09:03:04;;;;;;;;;12.20;11.00;;;;;11.54;38.60;98303.63;5070312;28;8861;-76
2024/01/06 09:05:33;;;;;;;;;8.20;6.80;;;;;11.45;38.75;98299.66;5035413;28;8881;-76
2024/01/06 09:08:03;;;;;;;;;13.60;12.60;;;;;11.46;38.64;98311.03;5070300;28;8851;-77
2024/01/06 09:10:33;;;;;;;;;14.00;14.00;;;;;11.42;38.59;98307.69;5070227;28;8935;-78
2024/01/06 09:13:02;;;;;;;;;13.80;13.20;;;;;11.46;38.38;98289.97;5070011;28;8843;-76
2024/01/06 09:15:31;;;;;;;;;13.60;12.60;;;;;11.49;38.40;98295.97;5068651;28;8843;-76
2024/01/06 09:18:01;;;;;;;;;13.60;11.60;;;;;11.28;39.09;98291.66;5070046;28;9804;-75
2024/01/06 09:20:31;;;;;;;;;10.80;10.80;;;;;11.30;39.01;98298.56;4987035;28;8896;-76
2024/01/06 09:23:00;;;;;;;;;11.60;11.60;;;;;11.35;38.80;98295.72;5069329;28;8862;-76
2024/01/06 09:25:29;;;;;;;;;16.00;14.80;;;;;11.28;39.05;98286.41;5069538;28;8927;-77
2024/01/06 09:28:00;;;;;;;;;14.60;14.20;;;;;11.27;38.79;98297.84;5069745;28;8839;-77
2024/01/06 09:30:29;;;;;;;;;16.40;15.40;;;;;11.30;39.21;98292.44;5070386;28;8898;-76
2024/01/06 09:32:58;;;;;;;;;15.60;14.00;;;;;11.29;39.39;98294.22;5036194;28;8835;-76
2024/01/06 09:35:27;;;;;;;;;16.00;16.00;;;;;11.36;39.14;98297.44;5073360;28;8858;-76
2024/01/06 09:37:56;;;;;;;;;16.20;15.40;;;;;11.50;38.70;98296.81;5071196;28;8858;-76
2024/01/06 09:40:25;;;;;;;;;15.40;15.40;;;;;11.40;39.12;98292.91;5069442;28;8858;-76
2024/01/06 09:42:55;;;;;;;;;18.00;15.40;;;;;11.45;39.11;98283.03;5069004;28;8935;-77
2024/01/06 09:45:27;;;;;;;;;15.20;14.60;;;;;11.38;39.23;98272.75;5069270;28;8959;-79
2024/01/06 09:47:57;;;;;;;;;15.80;15.80;;;;;11.31;39.03;98263.44;5051149;28;8846;-76
2024/01/06 09:50:27;;;;;;;;;19.40;15.20;;;;;11.43;38.90;98272.56;5069565;28;8866;-77
2024/01/06 09:53:05;;;;;;;;;16.80;16.00;;;;;11.52;39.10;98268.66;5084819;28;8931;-75
2024/01/06 09:55:36;;;;;;;;;12.00;12.00;;;;;11.52;38.84;98269.53;5067601;28;8870;-75
2024/01/06 09:58:06;;;;;;;;;16.00;15.80;;;;;11.68;38.85;98256.50;5068883;28;8861;-78
2024/01/06 10:00:37;;;;;;;;;18.20;18.20;;;;;11.72;39.06;98259.84;5067638;28;8896;-76
2024/01/06 10:03:07;;;;;;;;;22.00;17.60;;;;;11.70;38.90;98253.81;5069036;28;8858;-78
2024/01/06 10:05:37;;;;;;;;;15.40;15.00;;;;;11.71;38.92;98266.91;5069041;28;8882;-77
2024/01/06 10:08:06;;;;;;;;;18.80;18.80;;;;;11.67;38.78;98257.44;5068867;28;8893;-76
2024/01/06 10:10:35;;;;;;;;;16.40;15.40;;;;;11.66;38.75;98255.72;5033681;28;8884;-75
2024/01/06 10:13:05;;;;;;;;;15.00;13.00;;;;;11.55;39.34;98250.94;5067232;28;8939;-76
2024/01/06 10:15:38;;;;;;;;;14.20;14.20;;;;;11.64;39.01;98247.03;5050929;28;8963;-76
2024/01/06 10:18:08;;;;;;;;;13.40;10.80;;;;;11.69;39.15;98249.44;5068698;28;8855;-77
2024/01/06 10:20:39;;;;;;;;;15.80;15.80;;;;;11.60;38.87;98256.00;5050254;28;8916;-78
2024/01/06 10:23:08;;;;;;;;;15.20;13.80;;;;;11.73;38.92;98249.25;5073258;28;8956;-76
2024/01/06 10:25:37;;;;;;;;;17.00;17.00;;;;;11.71;38.72;98243.22;5072424;28;8951;-77
2024/01/06 10:28:07;;;;;;;;;18.20;18.20;;;;;11.66;38.88;98237.28;5070331;28;8846;-78
2024/01/06 10:30:40;;;;;;;;;18.00;17.00;;;;;11.74;39.41;98229.03;5068803;28;8873;-76
2024/01/06 10:33:11;;;;;;;;;10.40;9.40;;;;;11.68;39.28;98231.97;5068700;28;8897;-76
2024/01/06 10:35:40;;;;;;;;;17.00;15.20;;;;;11.73;39.07;98222.09;5032824;28;9639;-77
2024/01/06 10:38:09;;;;;;;;;19.00;17.60;;;;;11.74;38.94;98216.72;5068582;28;8862;-77
2024/01/06 10:40:38;;;;;;;;;17.60;16.00;;;;;11.72;39.44;98223.84;5067322;28;8872;-77
2024/01/06 10:43:10;;;;;;;;;18.00;17.40;;;;;11.76;39.03;98217.50;5050802;28;8834;-76
2024/01/06 10:45:41;;;;;;;;;18.00;17.20;;;;;11.66;39.46;98205.72;5068490;28;8874;-78
2024/01/06 10:48:10;;;;;;;;;18.60;18.60;;;;;11.72;39.71;98213.31;5067196;28;8931;-76
2024/01/06 10:50:39;;;;;;;;;20.60;16.80;;;;;11.79;39.34;98207.78;5049987;28;8967;-77
2024/01/06 10:53:10;;;;;;;;;16.40;15.80;;;;;11.79;39.27;98208.63;5069374;28;8831;-75
2024/01/06 10:55:40;;;;;;;;;20.00;17.20;;;;;11.65;40.08;98204.00;5067249;28;8846;-76
2024/01/06 10:58:11;;;;;;;;;18.40;17.40;;;;;11.54;40.04;98193.97;5068259;28;8835;-77
2024/01/06 11:00:41;;;;;;;;;17.80;16.00;;;;;11.60;39.91;98195.47;5068656;28;8858;-75
2024/01/06 11:03:11;;;;;;;;;19.40;17.60;;;;;11.55;40.14;98186.94;5068931;28;8941;-77
2024/01/06 11:05:41;;;;;;;;;19.80;18.40;;;;;11.52;40.18;98184.44;5049455;28;9658;-78
2024/01/06 11:08:12;;;;;;;;;16.40;16.40;;;;;11.56;40.37;98178.13;5067486;28;8842;-78
2024/01/06 11:10:41;;;;;;;;;17.80;17.20;;;;;11.56;40.58;98170.22;5068167;28;8854;-77
2024/01/06 11:13:12;;;;;;;;;19.60;18.60;;;;;11.60;40.50;98168.28;5071345;28;8838;-77
2024/01/06 11:15:45;;;;;;;;;14.20;14.20;;;;;11.54;40.46;98165.03;5075202;28;8923;-77
2024/01/06 11:18:39;;;;;;;;;21.00;16.80;;;;;11.65;40.46;98164.50;5073171;28;8862;-74
2024/01/06 11:21:26;;;;;;;;;16.40;15.20;;;;;11.56;40.67;98162.34;5009509;28;9000;-78
2024/01/06 11:24:17;;;;;;;;;8.60;8.60;;;;;11.49;40.76;98158.28;5009965;28;8866;-77
2024/01/06 11:26:46;;;;;;;;;18.60;16.00;;;;;11.35;41.31;98151.00;5009751;28;8838;-76
2024/01/06 11:29:15;;;;;;;;;16.40;16.20;;;;;11.42;40.93;98154.22;5009783;28;8957;-78
2024/01/06 11:32:13;;;;;;;;;16.80;16.00;;;;;11.51;40.86;98148.53;4993307;28;10254;-76
2024/01/06 11:34:42;;;;;;;;;17.60;16.80;;;;;11.46;40.96;98138.22;5009601;28;8894;-77
2024/01/06 11:37:13;;;;;;;;;16.20;15.60;;;;;11.47;41.45;98145.19;5009701;28;8854;-76
2024/01/06 11:39:43;;;;;;;;;19.00;18.00;;;;;11.47;41.48;98145.19;4977829;28;8862;-78
2024/01/06 11:42:12;;;;;;;;;21.40;19.00;;;;;11.26;41.81;98139.16;5009369;28;8983;-78
2024/01/06 11:44:45;;;;;;;;;16.20;15.40;;;;;11.38;41.47;98146.47;4992807;28;9002;-76